sensor_id;sensor_type;location;lat;lon;timestamp;P1;durP1;ratioP1;P2;durP2;ratioP2
60239;SDS011;46102;39.012;-7.064;2023-09-19T00:00:56;6.88;;;1.45;;
60239;SDS011;46102;39.012;-7.064;2023-09-19T00:02:58;4.13;;;1.63;;
60239;SDS011;46102;39.012;-7.064;2023-09-19T00:05:01;2.47;;;1.38;;
60239;SDS011;46102;39.012;-7.064;2023-09-19T00:07:03;3.90;;;1.73;;
60239;SDS011;46102;39.012;-7.064;2023-09-19T00:09:04;9.45;;;1.83;;
60239;SDS011;46102;39.012;-7.064;2023-09-19T00:11:05;1.77;;;1.30;;
60239;SDS011;46102;39.012;-7.064;2023-09-19T00:13:06;5.32;;;2.05;;
60239;SDS011;46102;39.012;-7.064;2023-09-19T00:15:08;3.42;;;1.88;;
60239;SDS011;46102;39.012;-7.064;2023-09-19T00:17:10;6.22;;;1.40;;
60239;SDS011;46102;39.012;-7.064;2023-09-19T00:19:11;1.73;;;1.25;;
60239;SDS011;46102;39.012;-7.064;2023-09-19T00:21:13;1.92;;;1.20;;
60239;SDS011;46102;39.012;-7.064;2023-09-19T00:23:15;6.28;;;1.38;;
60239;SDS011;46102;39.012;-7.064;2023-09-19T00:25:16;1.60;;;1.50;;
60239;SDS011;46102;39.012;-7.064;2023-09-19T00:27:17;3.13;;;1.88;;
60239;SDS011;46102;39.012;-7.064;2023-09-19T00:29:18;3.65;;;1.30;;
60239;SDS011;46102;39.012;-7.064;2023-09-19T00:31:20;2.40;;;1.30;;
60239;SDS011;46102;39.012;-7.064;2023-09-19T00:33:25;2.42;;;1.20;;
60239;SDS011;46102;39.012;-7.064;2023-09-19T00:35:26;3.40;;;1.20;;
60239;SDS011;46102;39.012;-7.064;2023-09-19T00:37:27;2.45;;;1.20;;
60239;SDS011;46102;39.012;-7.064;2023-09-19T00:39:28;4.65;;;1.38;;
60239;SDS011;46102;39.012;-7.064;2023-09-19T00:41:33;3.83;;;1.33;;
60239;SDS011;46102;39.012;-7.064;2023-09-19T00:43:35;3.80;;;1.55;;
60239;SDS011;46102;39.012;-7.064;2023-09-19T00:45:37;5.68;;;1.63;;
60239;SDS011;46102;39.012;-7.064;2023-09-19T00:47:44;5.18;;;1.92;;
60239;SDS011;46102;39.012;-7.064;2023-09-19T00:49:47;4.43;;;1.50;;
60239;SDS011;46102;39.012;-7.064;2023-09-19T00:51:50;5.72;;;2.20;;
60239;SDS011;46102;39.012;-7.064;2023-09-19T00:53:52;2.20;;;1.58;;
60239;SDS011;46102;39.012;-7.064;2023-09-19T00:55:53;3.55;;;1.92;;
60239;SDS011;46102;39.012;-7.064;2023-09-19T00:57:55;5.80;;;1.73;;
60239;SDS011;46102;39.012;-7.064;2023-09-19T00:59:57;5.35;;;2.35;;
60239;SDS011;46102;39.012;-7.064;2023-09-19T01:01:58;4.45;;;2.03;;
60239;SDS011;46102;39.012;-7.064;2023-09-19T01:04:01;8.18;;;2.33;;
60239;SDS011;46102;39.012;-7.064;2023-09-19T01:06:02;6.93;;;2.28;;
60239;SDS011;46102;39.012;-7.064;2023-09-19T01:08:03;10.48;;;2.63;;
60239;SDS011;46102;39.012;-7.064;2023-09-19T01:10:05;6.35;;;2.55;;
60239;SDS011;46102;39.012;-7.064;2023-09-19T01:12:09;7.15;;;1.98;;
60239;SDS011;46102;39.012;-7.064;2023-09-19T01:14:20;6.10;;;2.17;;
60239;SDS011;46102;39.012;-7.064;2023-09-19T01:19:05;8.20;;;2.05;;
60239;SDS011;46102;39.012;-7.064;2023-09-19T01:21:29;12.80;;;3.05;;
60239;SDS011;46102;39.012;-7.064;2023-09-19T01:30:39;3.03;;;1.90;;
60239;SDS011;46102;39.012;-7.064;2023-09-19T01:32:43;7.93;;;3.42;;
60239;SDS011;46102;39.012;-7.064;2023-09-19T01:34:47;3.45;;;2.47;;
60239;SDS011;46102;39.012;-7.064;2023-09-19T01:36:50;3.83;;;2.17;;
60239;SDS011;46102;39.012;-7.064;2023-09-19T01:38:51;4.68;;;2.38;;
60239;SDS011;46102;39.012;-7.064;2023-09-19T01:40:57;5.07;;;2.30;;
60239;SDS011;46102;39.012;-7.064;2023-09-19T01:47:35;8.38;;;2.13;;
60239;SDS011;46102;39.012;-7.064;2023-09-19T01:49:53;6.82;;;2.95;;
60239;SDS011;46102;39.012;-7.064;2023-09-19T01:52:02;9.38;;;1.77;;
60239;SDS011;46102;39.012;-7.064;2023-09-19T01:54:09;5.72;;;2.78;;
60239;SDS011;46102;39.012;-7.064;2023-09-19T01:56:14;5.60;;;1.80;;
60239;SDS011;46102;39.012;-7.064;2023-09-19T02:00:46;7.07;;;2.58;;
60239;SDS011;46102;39.012;-7.064;2023-09-19T02:02:52;4.22;;;2.13;;
60239;SDS011;46102;39.012;-7.064;2023-09-19T02:04:56;6.65;;;2.10;;
60239;SDS011;46102;39.012;-7.064;2023-09-19T02:07:00;7.25;;;2.63;;
60239;SDS011;46102;39.012;-7.064;2023-09-19T02:09:01;5.38;;;2.38;;
60239;SDS011;46102;39.012;-7.064;2023-09-19T02:11:04;6.53;;;2.65;;
60239;SDS011;46102;39.012;-7.064;2023-09-19T02:13:04;6.93;;;2.30;;
60239;SDS011;46102;39.012;-7.064;2023-09-19T02:15:06;5.50;;;2.00;;
60239;SDS011;46102;39.012;-7.064;2023-09-19T02:17:07;10.98;;;2.45;;
60239;SDS011;46102;39.012;-7.064;2023-09-19T02:19:09;6.18;;;2.08;;
60239;SDS011;46102;39.012;-7.064;2023-09-19T02:21:10;3.47;;;1.70;;
60239;SDS011;46102;39.012;-7.064;2023-09-19T02:23:12;5.32;;;1.75;;
60239;SDS011;46102;39.012;-7.064;2023-09-19T02:25:13;3.60;;;1.80;;
60239;SDS011;46102;39.012;-7.064;2023-09-19T02:27:14;4.55;;;2.05;;
60239;SDS011;46102;39.012;-7.064;2023-09-19T02:29:16;4.43;;;1.95;;
60239;SDS011;46102;39.012;-7.064;2023-09-19T02:31:17;4.53;;;1.88;;
60239;SDS011;46102;39.012;-7.064;2023-09-19T02:33:18;7.35;;;2.10;;
60239;SDS011;46102;39.012;-7.064;2023-09-19T02:35:19;3.70;;;1.48;;
60239;SDS011;46102;39.012;-7.064;2023-09-19T02:37:20;4.72;;;1.75;;
60239;SDS011;46102;39.012;-7.064;2023-09-19T02:39:21;3.70;;;1.60;;
60239;SDS011;46102;39.012;-7.064;2023-09-19T02:41:23;4.50;;;1.67;;
60239;SDS011;46102;39.012;-7.064;2023-09-19T02:43:24;3.45;;;1.73;;
60239;SDS011;46102;39.012;-7.064;2023-09-19T02:45:25;5.57;;;1.48;;
60239;SDS011;46102;39.012;-7.064;2023-09-19T02:47:26;2.53;;;1.45;;
60239;SDS011;46102;39.012;-7.064;2023-09-19T02:49:29;3.13;;;1.93;;
60239;SDS011;46102;39.012;-7.064;2023-09-19T02:51:30;6.50;;;1.63;;
60239;SDS011;46102;39.012;-7.064;2023-09-19T02:53:31;5.15;;;1.58;;
60239;SDS011;46102;39.012;-7.064;2023-09-19T02:55:32;3.28;;;1.95;;
60239;SDS011;46102;39.012;-7.064;2023-09-19T02:57:33;6.10;;;2.00;;
60239;SDS011;46102;39.012;-7.064;2023-09-19T02:59:34;8.38;;;2.08;;
60239;SDS011;46102;39.012;-7.064;2023-09-19T03:01:37;2.78;;;1.52;;
60239;SDS011;46102;39.012;-7.064;2023-09-19T03:03:38;3.83;;;1.70;;
60239;SDS011;46102;39.012;-7.064;2023-09-19T03:05:41;5.32;;;1.73;;
60239;SDS011;46102;39.012;-7.064;2023-09-19T03:07:47;5.10;;;1.80;;
60239;SDS011;46102;39.012;-7.064;2023-09-19T03:09:51;1.85;;;1.50;;
60239;SDS011;46102;39.012;-7.064;2023-09-19T03:11:53;2.90;;;1.30;;
60239;SDS011;46102;39.012;-7.064;2023-09-19T03:13:55;4.50;;;1.58;;
60239;SDS011;46102;39.012;-7.064;2023-09-19T03:15:56;3.50;;;1.48;;
60239;SDS011;46102;39.012;-7.064;2023-09-19T03:20:02;3.47;;;1.58;;
60239;SDS011;46102;39.012;-7.064;2023-09-19T03:22:08;4.32;;;1.45;;
60239;SDS011;46102;39.012;-7.064;2023-09-19T03:24:10;5.63;;;1.55;;
60239;SDS011;46102;39.012;-7.064;2023-09-19T03:26:13;4.45;;;1.58;;
60239;SDS011;46102;39.012;-7.064;2023-09-19T03:28:16;6.60;;;2.03;;
60239;SDS011;46102;39.012;-7.064;2023-09-19T03:30:18;4.00;;;1.85;;
60239;SDS011;46102;39.012;-7.064;2023-09-19T03:32:19;5.55;;;1.38;;
60239;SDS011;46102;39.012;-7.064;2023-09-19T03:34:20;4.82;;;1.88;;
60239;SDS011;46102;39.012;-7.064;2023-09-19T03:36:22;3.53;;;1.58;;
60239;SDS011;46102;39.012;-7.064;2023-09-19T03:38:23;4.20;;;1.55;;
60239;SDS011;46102;39.012;-7.064;2023-09-19T03:40:24;3.38;;;1.20;;
60239;SDS011;46102;39.012;-7.064;2023-09-19T03:42:25;7.57;;;1.63;;
60239;SDS011;46102;39.012;-7.064;2023-09-19T03:44:28;4.97;;;1.90;;
60239;SDS011;46102;39.012;-7.064;2023-09-19T03:46:28;8.18;;;1.75;;
60239;SDS011;46102;39.012;-7.064;2023-09-19T03:48:30;6.85;;;2.25;;
60239;SDS011;46102;39.012;-7.064;2023-09-19T03:50:31;4.38;;;1.98;;
60239;SDS011;46102;39.012;-7.064;2023-09-19T03:52:34;7.07;;;2.67;;
60239;SDS011;46102;39.012;-7.064;2023-09-19T03:54:35;7.35;;;2.33;;
60239;SDS011;46102;39.012;-7.064;2023-09-19T03:56:35;9.88;;;2.70;;
60239;SDS011;46102;39.012;-7.064;2023-09-19T03:58:36;11.00;;;3.10;;
60239;SDS011;46102;39.012;-7.064;2023-09-19T04:00:39;5.00;;;2.97;;
60239;SDS011;46102;39.012;-7.064;2023-09-19T04:02:40;11.82;;;5.15;;
60239;SDS011;46102;39.012;-7.064;2023-09-19T04:04:41;10.52;;;8.00;;
60239;SDS011;46102;39.012;-7.064;2023-09-19T04:06:42;10.13;;;9.15;;
60239;SDS011;46102;39.012;-7.064;2023-09-19T04:08:43;10.70;;;6.97;;
60239;SDS011;46102;39.012;-7.064;2023-09-19T04:10:45;11.10;;;6.20;;
60239;SDS011;46102;39.012;-7.064;2023-09-19T04:12:56;7.15;;;4.55;;
60239;SDS011;46102;39.012;-7.064;2023-09-19T04:14:56;6.90;;;3.40;;
60239;SDS011;46102;39.012;-7.064;2023-09-19T04:16:57;5.07;;;3.28;;
60239;SDS011;46102;39.012;-7.064;2023-09-19T04:18:58;6.10;;;2.47;;
60239;SDS011;46102;39.012;-7.064;2023-09-19T04:20:59;5.45;;;2.05;;
60239;SDS011;46102;39.012;-7.064;2023-09-19T04:23:03;7.13;;;1.80;;
60239;SDS011;46102;39.012;-7.064;2023-09-19T04:25:06;6.65;;;2.08;;
60239;SDS011;46102;39.012;-7.064;2023-09-19T04:27:07;7.97;;;2.20;;
60239;SDS011;46102;39.012;-7.064;2023-09-19T04:29:10;5.75;;;2.78;;
60239;SDS011;46102;39.012;-7.064;2023-09-19T04:31:13;4.80;;;2.20;;
60239;SDS011;46102;39.012;-7.064;2023-09-19T04:33:14;5.57;;;1.70;;
60239;SDS011;46102;39.012;-7.064;2023-09-19T04:35:15;7.60;;;1.85;;
60239;SDS011;46102;39.012;-7.064;2023-09-19T04:37:16;5.93;;;1.60;;
60239;SDS011;46102;39.012;-7.064;2023-09-19T04:39:17;6.68;;;1.95;;
60239;SDS011;46102;39.012;-7.064;2023-09-19T04:41:18;3.22;;;1.30;;
60239;SDS011;46102;39.012;-7.064;2023-09-19T04:43:18;6.68;;;1.33;;
60239;SDS011;46102;39.012;-7.064;2023-09-19T04:45:19;7.28;;;1.55;;
60239;SDS011;46102;39.012;-7.064;2023-09-19T04:47:20;2.60;;;1.17;;
60239;SDS011;46102;39.012;-7.064;2023-09-19T04:49:22;2.70;;;1.33;;
60239;SDS011;46102;39.012;-7.064;2023-09-19T04:51:23;5.47;;;1.30;;
60239;SDS011;46102;39.012;-7.064;2023-09-19T04:53:23;3.47;;;1.30;;
60239;SDS011;46102;39.012;-7.064;2023-09-19T04:55:24;3.28;;;1.23;;
60239;SDS011;46102;39.012;-7.064;2023-09-19T04:57:26;3.60;;;1.80;;
60239;SDS011;46102;39.012;-7.064;2023-09-19T04:59:28;6.55;;;1.60;;
60239;SDS011;46102;39.012;-7.064;2023-09-19T05:01:29;4.78;;;1.30;;
60239;SDS011;46102;39.012;-7.064;2023-09-19T05:03:30;4.78;;;1.30;;
60239;SDS011;46102;39.012;-7.064;2023-09-19T05:05:30;4.68;;;1.58;;
60239;SDS011;46102;39.012;-7.064;2023-09-19T05:07:31;2.08;;;1.35;;
60239;SDS011;46102;39.012;-7.064;2023-09-19T05:09:32;2.17;;;1.27;;
60239;SDS011;46102;39.012;-7.064;2023-09-19T05:11:34;3.22;;;1.95;;
60239;SDS011;46102;39.012;-7.064;2023-09-19T05:13:36;3.88;;;1.40;;
60239;SDS011;46102;39.012;-7.064;2023-09-19T05:15:37;3.85;;;1.20;;
60239;SDS011;46102;39.012;-7.064;2023-09-19T05:17:39;3.75;;;1.33;;
60239;SDS011;46102;39.012;-7.064;2023-09-19T05:19:40;6.55;;;1.60;;
60239;SDS011;46102;39.012;-7.064;2023-09-19T05:21:41;4.07;;;1.75;;
60239;SDS011;46102;39.012;-7.064;2023-09-19T05:23:41;6.85;;;2.47;;
60239;SDS011;46102;39.012;-7.064;2023-09-19T05:25:42;9.93;;;2.22;;
60239;SDS011;46102;39.012;-7.064;2023-09-19T05:27:43;6.38;;;2.03;;
60239;SDS011;46102;39.012;-7.064;2023-09-19T05:29:44;5.90;;;1.52;;
60239;SDS011;46102;39.012;-7.064;2023-09-19T05:31:45;6.20;;;1.83;;
60239;SDS011;46102;39.012;-7.064;2023-09-19T05:33:45;11.88;;;1.50;;
60239;SDS011;46102;39.012;-7.064;2023-09-19T05:35:49;4.30;;;1.52;;
60239;SDS011;46102;39.012;-7.064;2023-09-19T05:37:50;4.32;;;1.90;;
60239;SDS011;46102;39.012;-7.064;2023-09-19T05:39:51;5.07;;;2.00;;
60239;SDS011;46102;39.012;-7.064;2023-09-19T05:41:54;5.50;;;2.05;;
60239;SDS011;46102;39.012;-7.064;2023-09-19T05:43:55;7.05;;;3.75;;
60239;SDS011;46102;39.012;-7.064;2023-09-19T05:45:56;11.73;;;3.88;;
60239;SDS011;46102;39.012;-7.064;2023-09-19T05:47:56;6.20;;;2.50;;
60239;SDS011;46102;39.012;-7.064;2023-09-19T05:50:08;7.70;;;1.85;;
60239;SDS011;46102;39.012;-7.064;2023-09-19T05:52:09;6.10;;;2.20;;
60239;SDS011;46102;39.012;-7.064;2023-09-19T05:54:10;7.93;;;2.15;;
60239;SDS011;46102;39.012;-7.064;2023-09-19T05:56:11;4.05;;;2.08;;
60239;SDS011;46102;39.012;-7.064;2023-09-19T05:58:14;5.93;;;2.17;;
60239;SDS011;46102;39.012;-7.064;2023-09-19T06:00:14;3.85;;;2.05;;
60239;SDS011;46102;39.012;-7.064;2023-09-19T06:02:18;6.63;;;2.00;;
60239;SDS011;46102;39.012;-7.064;2023-09-19T06:04:20;5.40;;;2.10;;
60239;SDS011;46102;39.012;-7.064;2023-09-19T06:06:21;6.47;;;2.35;;
60239;SDS011;46102;39.012;-7.064;2023-09-19T06:08:22;15.45;;;4.80;;
60239;SDS011;46102;39.012;-7.064;2023-09-19T06:10:23;13.32;;;6.38;;
60239;SDS011;46102;39.012;-7.064;2023-09-19T06:12:25;12.68;;;6.15;;
60239;SDS011;46102;39.012;-7.064;2023-09-19T06:14:26;11.82;;;5.72;;
60239;SDS011;46102;39.012;-7.064;2023-09-19T06:16:27;14.70;;;6.18;;
60239;SDS011;46102;39.012;-7.064;2023-09-19T06:18:29;38.45;;;18.63;;
60239;SDS011;46102;39.012;-7.064;2023-09-19T06:20:33;27.73;;;13.13;;
60239;SDS011;46102;39.012;-7.064;2023-09-19T06:22:34;20.10;;;10.18;;
60239;SDS011;46102;39.012;-7.064;2023-09-19T06:24:35;24.48;;;10.55;;
60239;SDS011;46102;39.012;-7.064;2023-09-19T06:26:36;20.25;;;6.50;;
60239;SDS011;46102;39.012;-7.064;2023-09-19T06:28:37;10.57;;;4.43;;
60239;SDS011;46102;39.012;-7.064;2023-09-19T06:30:37;8.63;;;2.72;;
60239;SDS011;46102;39.012;-7.064;2023-09-19T06:32:42;9.23;;;2.67;;
60239;SDS011;46102;39.012;-7.064;2023-09-19T06:34:45;5.53;;;2.47;;
60239;SDS011;46102;39.012;-7.064;2023-09-19T06:36:46;5.88;;;1.83;;
60239;SDS011;46102;39.012;-7.064;2023-09-19T06:38:47;4.78;;;2.35;;
60239;SDS011;46102;39.012;-7.064;2023-09-19T06:42:53;9.05;;;3.40;;
60239;SDS011;46102;39.012;-7.064;2023-09-19T06:44:54;4.28;;;3.00;;
60239;SDS011;46102;39.012;-7.064;2023-09-19T06:46:55;6.90;;;3.55;;
60239;SDS011;46102;39.012;-7.064;2023-09-19T06:48:55;7.18;;;5.55;;
60239;SDS011;46102;39.012;-7.064;2023-09-19T06:50:56;15.35;;;9.32;;
60239;SDS011;46102;39.012;-7.064;2023-09-19T06:52:58;14.20;;;8.70;;
60239;SDS011;46102;39.012;-7.064;2023-09-19T06:55:00;13.00;;;4.57;;
60239;SDS011;46102;39.012;-7.064;2023-09-19T06:57:03;9.32;;;2.92;;
60239;SDS011;46102;39.012;-7.064;2023-09-19T06:59:04;9.35;;;3.55;;
60239;SDS011;46102;39.012;-7.064;2023-09-19T07:01:07;3.95;;;3.05;;
60239;SDS011;46102;39.012;-7.064;2023-09-19T07:03:08;8.63;;;3.60;;
60239;SDS011;46102;39.012;-7.064;2023-09-19T07:05:11;7.68;;;5.32;;
60239;SDS011;46102;39.012;-7.064;2023-09-19T07:07:12;28.55;;;18.25;;
60239;SDS011;46102;39.012;-7.064;2023-09-19T07:09:14;61.85;;;33.40;;
60239;SDS011;46102;39.012;-7.064;2023-09-19T07:11:14;108.10;;;41.15;;
60239;SDS011;46102;39.012;-7.064;2023-09-19T07:13:15;69.18;;;23.88;;
60239;SDS011;46102;39.012;-7.064;2023-09-19T07:15:19;21.75;;;9.77;;
60239;SDS011;46102;39.012;-7.064;2023-09-19T07:17:20;8.40;;;4.20;;
60239;SDS011;46102;39.012;-7.064;2023-09-19T07:19:21;10.93;;;3.42;;
60239;SDS011;46102;39.012;-7.064;2023-09-19T07:21:22;5.97;;;2.88;;
60239;SDS011;46102;39.012;-7.064;2023-09-19T07:23:24;5.40;;;2.60;;
60239;SDS011;46102;39.012;-7.064;2023-09-19T07:25:27;11.60;;;9.13;;
60239;SDS011;46102;39.012;-7.064;2023-09-19T07:27:28;17.40;;;8.75;;
60239;SDS011;46102;39.012;-7.064;2023-09-19T07:29:29;12.68;;;5.95;;
60239;SDS011;46102;39.012;-7.064;2023-09-19T07:31:29;10.63;;;7.78;;
60239;SDS011;46102;39.012;-7.064;2023-09-19T07:33:31;9.80;;;6.03;;
60239;SDS011;46102;39.012;-7.064;2023-09-19T07:35:32;17.27;;;7.68;;
60239;SDS011;46102;39.012;-7.064;2023-09-19T07:37:33;75.22;;;25.67;;
60239;SDS011;46102;39.012;-7.064;2023-09-19T07:39:34;48.05;;;20.70;;
60239;SDS011;46102;39.012;-7.064;2023-09-19T07:41:35;21.50;;;11.02;;
60239;SDS011;46102;39.012;-7.064;2023-09-19T07:43:36;10.77;;;4.65;;
60239;SDS011;46102;39.012;-7.064;2023-09-19T07:45:40;22.08;;;8.00;;
60239;SDS011;46102;39.012;-7.064;2023-09-19T07:47:47;8.23;;;3.40;;
60239;SDS011;46102;39.012;-7.064;2023-09-19T07:49:48;4.78;;;2.38;;
60239;SDS011;46102;39.012;-7.064;2023-09-19T07:51:49;7.20;;;3.45;;
60239;SDS011;46102;39.012;-7.064;2023-09-19T07:53:50;6.97;;;3.95;;
60239;SDS011;46102;39.012;-7.064;2023-09-19T07:55:51;32.65;;;19.25;;
60239;SDS011;46102;39.012;-7.064;2023-09-19T07:57:55;60.33;;;36.70;;
60239;SDS011;46102;39.012;-7.064;2023-09-19T07:59:56;172.63;;;63.72;;
60239;SDS011;46102;39.012;-7.064;2023-09-19T08:01:57;114.70;;;39.63;;
60239;SDS011;46102;39.012;-7.064;2023-09-19T08:03:58;19.50;;;7.25;;
60239;SDS011;46102;39.012;-7.064;2023-09-19T08:05:59;9.27;;;2.75;;
60239;SDS011;46102;39.012;-7.064;2023-09-19T08:08:01;5.72;;;2.88;;
60239;SDS011;46102;39.012;-7.064;2023-09-19T08:10:03;2.50;;;1.98;;
60239;SDS011;46102;39.012;-7.064;2023-09-19T08:12:13;7.05;;;3.15;;
60239;SDS011;46102;39.012;-7.064;2023-09-19T08:14:15;6.55;;;2.83;;
60239;SDS011;46102;39.012;-7.064;2023-09-19T08:16:16;9.20;;;3.75;;
60239;SDS011;46102;39.012;-7.064;2023-09-19T08:18:18;8.43;;;4.40;;
60239;SDS011;46102;39.012;-7.064;2023-09-19T08:20:19;10.57;;;3.10;;
60239;SDS011;46102;39.012;-7.064;2023-09-19T08:22:20;14.13;;;5.45;;
60239;SDS011;46102;39.012;-7.064;2023-09-19T08:24:22;6.05;;;4.10;;
60239;SDS011;46102;39.012;-7.064;2023-09-19T08:26:22;9.00;;;3.30;;
60239;SDS011;46102;39.012;-7.064;2023-09-19T08:28:24;3.97;;;2.92;;
60239;SDS011;46102;39.012;-7.064;2023-09-19T08:30:25;9.60;;;5.20;;
60239;SDS011;46102;39.012;-7.064;2023-09-19T08:32:28;11.63;;;5.05;;
60239;SDS011;46102;39.012;-7.064;2023-09-19T08:34:29;9.10;;;6.28;;
60239;SDS011;46102;39.012;-7.064;2023-09-19T08:36:31;9.98;;;4.10;;
60239;SDS011;46102;39.012;-7.064;2023-09-19T08:38:33;18.52;;;7.53;;
60239;SDS011;46102;39.012;-7.064;2023-09-19T08:40:38;20.43;;;6.27;;
60239;SDS011;46102;39.012;-7.064;2023-09-19T08:44:54;6.32;;;3.35;;
60239;SDS011;46102;39.012;-7.064;2023-09-19T08:47:00;3.08;;;2.25;;
60239;SDS011;46102;39.012;-7.064;2023-09-19T08:49:33;8.00;;;3.60;;
60239;SDS011;46102;39.012;-7.064;2023-09-19T08:51:42;14.73;;;4.88;;
60239;SDS011;46102;39.012;-7.064;2023-09-19T08:55:49;25.42;;;9.98;;
60239;SDS011;46102;39.012;-7.064;2023-09-19T08:57:59;11.35;;;4.45;;
60239;SDS011;46102;39.012;-7.064;2023-09-19T09:00:04;7.78;;;3.05;;
60239;SDS011;46102;39.012;-7.064;2023-09-19T09:02:13;7.28;;;4.78;;
60239;SDS011;46102;39.012;-7.064;2023-09-19T09:04:15;9.07;;;3.28;;
60239;SDS011;46102;39.012;-7.064;2023-09-19T09:06:16;9.02;;;3.33;;
60239;SDS011;46102;39.012;-7.064;2023-09-19T09:08:19;3.72;;;2.97;;
60239;SDS011;46102;39.012;-7.064;2023-09-19T09:10:22;6.28;;;3.28;;
60239;SDS011;46102;39.012;-7.064;2023-09-19T09:12:23;7.65;;;2.60;;
60239;SDS011;46102;39.012;-7.064;2023-09-19T09:14:25;5.00;;;2.70;;
60239;SDS011;46102;39.012;-7.064;2023-09-19T09:16:26;8.90;;;3.20;;
60239;SDS011;46102;39.012;-7.064;2023-09-19T09:18:30;13.18;;;5.30;;
60239;SDS011;46102;39.012;-7.064;2023-09-19T09:20:31;10.10;;;4.45;;
60239;SDS011;46102;39.012;-7.064;2023-09-19T09:22:32;11.13;;;2.88;;
60239;SDS011;46102;39.012;-7.064;2023-09-19T09:24:33;6.18;;;2.50;;
60239;SDS011;46102;39.012;-7.064;2023-09-19T09:26:40;8.35;;;2.80;;
60239;SDS011;46102;39.012;-7.064;2023-09-19T09:28:45;7.32;;;2.40;;
60239;SDS011;46102;39.012;-7.064;2023-09-19T09:30:48;7.20;;;2.90;;
60239;SDS011;46102;39.012;-7.064;2023-09-19T09:32:50;4.38;;;2.92;;
60239;SDS011;46102;39.012;-7.064;2023-09-19T09:35:08;5.82;;;2.47;;
60239;SDS011;46102;39.012;-7.064;2023-09-19T09:37:17;3.10;;;2.05;;
60239;SDS011;46102;39.012;-7.064;2023-09-19T09:39:29;6.43;;;4.97;;
60239;SDS011;46102;39.012;-7.064;2023-09-19T09:41:38;66.10;;;33.40;;
60239;SDS011;46102;39.012;-7.064;2023-09-19T09:43:39;38.08;;;16.27;;
60239;SDS011;46102;39.012;-7.064;2023-09-19T09:45:41;18.38;;;6.97;;
60239;SDS011;46102;39.012;-7.064;2023-09-19T09:47:49;8.65;;;3.00;;
60239;SDS011;46102;39.012;-7.064;2023-09-19T09:49:58;4.80;;;2.22;;
60239;SDS011;46102;39.012;-7.064;2023-09-19T09:52:07;4.57;;;2.83;;
60239;SDS011;46102;39.012;-7.064;2023-09-19T09:54:17;3.95;;;1.60;;
60239;SDS011;46102;39.012;-7.064;2023-09-19T09:56:22;5.35;;;2.10;;
60239;SDS011;46102;39.012;-7.064;2023-09-19T09:58:23;2.95;;;2.33;;
60239;SDS011;46102;39.012;-7.064;2023-09-19T10:00:29;6.28;;;3.10;;
60239;SDS011;46102;39.012;-7.064;2023-09-19T10:02:42;9.27;;;2.70;;
60239;SDS011;46102;39.012;-7.064;2023-09-19T10:04:46;5.55;;;2.00;;
60239;SDS011;46102;39.012;-7.064;2023-09-19T10:06:59;4.93;;;1.98;;
60239;SDS011;46102;39.012;-7.064;2023-09-19T10:11:15;5.50;;;1.60;;
60239;SDS011;46102;39.012;-7.064;2023-09-19T10:13:16;3.95;;;1.50;;
60239;SDS011;46102;39.012;-7.064;2023-09-19T10:15:21;4.63;;;1.35;;
60239;SDS011;46102;39.012;-7.064;2023-09-19T10:17:32;2.97;;;1.85;;
60239;SDS011;46102;39.012;-7.064;2023-09-19T10:19:37;3.50;;;1.60;;
60239;SDS011;46102;39.012;-7.064;2023-09-19T10:21:46;5.25;;;2.10;;
60239;SDS011;46102;39.012;-7.064;2023-09-19T10:23:49;5.68;;;2.17;;
60239;SDS011;46102;39.012;-7.064;2023-09-19T10:27:54;2.33;;;1.92;;
60239;SDS011;46102;39.012;-7.064;2023-09-19T10:29:55;3.55;;;1.80;;
60239;SDS011;46102;39.012;-7.064;2023-09-19T10:31:59;5.63;;;2.10;;
60239;SDS011;46102;39.012;-7.064;2023-09-19T10:34:06;3.17;;;1.77;;
60239;SDS011;46102;39.012;-7.064;2023-09-19T10:36:10;5.72;;;1.67;;
60239;SDS011;46102;39.012;-7.064;2023-09-19T10:38:13;6.82;;;5.70;;
60239;SDS011;46102;39.012;-7.064;2023-09-19T10:40:15;8.27;;;5.18;;
60239;SDS011;46102;39.012;-7.064;2023-09-19T10:42:19;5.63;;;1.58;;
60239;SDS011;46102;39.012;-7.064;2023-09-19T10:44:23;3.97;;;2.03;;
60239;SDS011;46102;39.012;-7.064;2023-09-19T10:46:29;3.17;;;1.40;;
60239;SDS011;46102;39.012;-7.064;2023-09-19T10:48:33;5.28;;;1.80;;
60239;SDS011;46102;39.012;-7.064;2023-09-19T10:50:41;4.50;;;1.58;;
60239;SDS011;46102;39.012;-7.064;2023-09-19T10:52:46;3.78;;;1.80;;
60239;SDS011;46102;39.012;-7.064;2023-09-19T10:54:52;4.60;;;2.38;;
60239;SDS011;46102;39.012;-7.064;2023-09-19T10:56:57;6.35;;;1.60;;
60239;SDS011;46102;39.012;-7.064;2023-09-19T10:59:09;1.80;;;1.58;;
60239;SDS011;46102;39.012;-7.064;2023-09-19T11:01:12;3.20;;;1.35;;
60239;SDS011;46102;39.012;-7.064;2023-09-19T11:05:18;5.30;;;1.40;;
60239;SDS011;46102;39.012;-7.064;2023-09-19T11:07:20;1.75;;;1.27;;
60239;SDS011;46102;39.012;-7.064;2023-09-19T11:09:20;3.58;;;2.10;;
60239;SDS011;46102;39.012;-7.064;2023-09-19T11:13:39;3.17;;;1.80;;
60239;SDS011;46102;39.012;-7.064;2023-09-19T11:18:03;3.60;;;1.40;;
60239;SDS011;46102;39.012;-7.064;2023-09-19T11:20:42;4.22;;;1.40;;
60239;SDS011;46102;39.012;-7.064;2023-09-19T11:25:20;2.88;;;1.77;;
60239;SDS011;46102;39.012;-7.064;2023-09-19T11:27:31;2.00;;;1.25;;
60239;SDS011;46102;39.012;-7.064;2023-09-19T11:29:34;3.28;;;1.80;;
60239;SDS011;46102;39.012;-7.064;2023-09-19T11:31:42;5.15;;;1.42;;
60239;SDS011;46102;39.012;-7.064;2023-09-19T11:33:48;2.85;;;1.23;;
60239;SDS011;46102;39.012;-7.064;2023-09-19T11:36:35;2.78;;;1.65;;
60239;SDS011;46102;39.012;-7.064;2023-09-19T11:40:58;3.58;;;1.48;;
60239;SDS011;46102;39.012;-7.064;2023-09-19T11:43:29;1.48;;;1.38;;
60239;SDS011;46102;39.012;-7.064;2023-09-19T11:47:47;4.95;;;1.13;;
60239;SDS011;46102;39.012;-7.064;2023-09-19T11:49:48;2.33;;;1.38;;
60239;SDS011;46102;39.012;-7.064;2023-09-19T11:51:51;2.10;;;1.10;;
60239;SDS011;46102;39.012;-7.064;2023-09-19T11:53:52;2.92;;;1.65;;
60239;SDS011;46102;39.012;-7.064;2023-09-19T11:55:57;3.10;;;1.75;;
60239;SDS011;46102;39.012;-7.064;2023-09-19T11:58:00;5.18;;;1.75;;
60239;SDS011;46102;39.012;-7.064;2023-09-19T12:00:01;2.17;;;1.00;;
60239;SDS011;46102;39.012;-7.064;2023-09-19T12:02:12;5.20;;;1.50;;
60239;SDS011;46102;39.012;-7.064;2023-09-19T12:04:35;1.95;;;1.00;;
60239;SDS011;46102;39.012;-7.064;2023-09-19T12:06:39;1.70;;;1.10;;
60239;SDS011;46102;39.012;-7.064;2023-09-19T12:08:44;2.13;;;1.42;;
60239;SDS011;46102;39.012;-7.064;2023-09-19T12:10:47;1.57;;;1.10;;
60239;SDS011;46102;39.012;-7.064;2023-09-19T12:12:49;3.92;;;1.48;;
60239;SDS011;46102;39.012;-7.064;2023-09-19T12:14:50;4.35;;;1.50;;
60239;SDS011;46102;39.012;-7.064;2023-09-19T12:16:55;1.65;;;1.10;;
60239;SDS011;46102;39.012;-7.064;2023-09-19T12:18:57;2.33;;;1.48;;
60239;SDS011;46102;39.012;-7.064;2023-09-19T12:21:24;3.05;;;1.30;;
60239;SDS011;46102;39.012;-7.064;2023-09-19T12:23:31;6.83;;;1.50;;
60239;SDS011;46102;39.012;-7.064;2023-09-19T12:25:42;1.77;;;1.13;;
60239;SDS011;46102;39.012;-7.064;2023-09-19T12:27:48;2.20;;;1.15;;
60239;SDS011;46102;39.012;-7.064;2023-09-19T12:29:53;2.88;;;1.08;;
60239;SDS011;46102;39.012;-7.064;2023-09-19T12:31:59;1.80;;;1.13;;
60239;SDS011;46102;39.012;-7.064;2023-09-19T12:34:04;1.73;;;1.23;;
60239;SDS011;46102;39.012;-7.064;2023-09-19T12:36:19;1.50;;;1.15;;
60239;SDS011;46102;39.012;-7.064;2023-09-19T12:38:29;1.55;;;1.15;;
60239;SDS011;46102;39.012;-7.064;2023-09-19T12:40:35;2.85;;;1.20;;
60239;SDS011;46102;39.012;-7.064;2023-09-19T12:42:38;1.05;;;0.82;;
60239;SDS011;46102;39.012;-7.064;2023-09-19T12:44:44;2.38;;;1.35;;
60239;SDS011;46102;39.012;-7.064;2023-09-19T12:46:46;3.08;;;1.33;;
60239;SDS011;46102;39.012;-7.064;2023-09-19T12:48:47;2.83;;;1.17;;
60239;SDS011;46102;39.012;-7.064;2023-09-19T12:51:13;4.28;;;1.10;;
60239;SDS011;46102;39.012;-7.064;2023-09-19T12:53:25;3.05;;;1.38;;